Nearby METAR Reports

 

CYYJ - Victoria Intl Ar, British Columbia, Canada
Distance from station: N 6km
Updated: 13/10/2019 16:00
Mostly cloudy
Mostly cloudy
 Wind from E
Wind: E 11 km/h
Temperature: 12°C
Dew Point: 7°C
Humidity: 72%
Barometer: 1014.9 hPa
Clouds: Mostly cloudy
Visibility: 48 km
Cloud details: Partly cloudy 1006 m
Mostly cloudy 1585 m
Mostly cloudy 2438 m
Mostly cloudy 6096 m
2019/10/13 23:00 CYYJ 132300Z 09006KT 30SM SCT033 BKN052 BKN080 BKN200 12/07 A2997 RMK SC3SC2AC1CI1 CI TR SLP149
CWKH - Malahat (autob), British Columbia, Canada
Distance from station: WSW 10km
Updated: 13/10/2019 16:00

 
Temperature: 10°C
2019/10/13 23:00 CWKH 132300Z AUTO 10/ RMK AO1 SLP140 T0098 53004
 
CWPF - Esquimalt Metoc, British Columbia, Canada
Distance from station: S 18km
Updated: 13/10/2019 16:00

 Wind from S
Wind: S 9 km/h
Temperature: 11°C
Dew Point: 9°C
Humidity: 88%
2019/10/13 23:00 CWPF 132300Z AUTO 18005KT 11/09 RMK AO1 SLP147 T01100087 53003
CWYJ - Victoria Univ, British Columbia, Canada
Distance from station: SSE 18km
Updated: 13/10/2019 16:00

 Wind from SE
Wind: SE 2 km/h
Temperature: 13°C
Dew Point: 8°C
Humidity: 72%
2019/10/13 23:00 CWYJ 132300Z AUTO 14001KT 13/08 RMK AO1 SLP150 T01260077 53003
 
CYWH - Victoria Harbour, British Columbia, Canada
Distance from station: S 20km
Updated: 13/10/2019 16:00
Mostly cloudy
Mostly cloudy
 Wind from SSE
Wind: SSE 9 km/h
Temperature: 13°C
Dew Point: 8°C
Humidity: 72%
Barometer: 1014.9 hPa
Clouds: Mostly cloudy
Visibility: 24 km
Cloud details: Few Clouds 914 m
Mostly cloudy 2438 m
2019/10/13 23:00 CYWH 132300Z 15005KT 110V190 15SM FEW030 BKN080 13/08 A2997 RMK CU1AC4 SLP152
CWLM - Victoria (autob), British Columbia, Canada
Distance from station: SSE 21km
Updated: 13/10/2019 16:00

 Wind from SSE
Wind: SSE 7 km/h
Temperature: 13°C
Dew Point: 8°C
Humidity: 72%
2019/10/13 23:00 CWLM 132300Z AUTO 16004KT 13/08 RMK AO1 SLP150 T01290082 53002
 
KFHR - Friday Harbor, Washington, USA
Distance from station: ESE 30km
Updated: 13/10/2019 15:53
Overcast
Overcast
 Wind from ESE
Wind: ESE 6 km/h
Temperature: 13°C
Dew Point: 8°C
Humidity: 72%
Barometer: 1015.2 hPa
Clouds: Overcast
Visibility: 16 km
Cloud details: Overcast 2438 m
2019/10/13 22:53 KFHR 132253Z AUTO 12003KT 10SM OVC080 13/08 A2998 RMK AO2 SLP153 T01280078
CWQK - Race Rocks Autob, British Columbia, Canada
Distance from station: SSW 34km
Updated: 13/10/2019 16:00

 Wind from S
Wind: S 4 km/h
Temperature: 13°C
Dew Point: 8°C
Humidity: 72%
2019/10/13 23:00 CWQK 132300Z AUTO 17002KT 13/08 RMK AO1 SLP150 T01330076 51001
 
CWEZ - Saturna Isl (map, British Columbia, Canada
Distance from station: NE 35km
Updated: 13/10/2019 16:00

 Wind from WNW
Wind: WNW 2 km/h
Temperature: 12°C
Dew Point: 7°C
Humidity: 72%
2019/10/13 23:00 CWEZ 132300Z AUTO 29001KT 12/07 RMK AO1 SLP148 T01210074 53003
KORS - Eastsound/Orcas, Washington, USA
Distance from station: ENE 39km
Updated: 13/10/2019 15:55
Overcast
Overcast
 Wind from varies
Wind: varies 6 km/h
Temperature: 12°C
Dew Point: 7°C
Humidity: 72%
Barometer: 1014.9 hPa
Clouds: Overcast
Visibility: 16 km
Cloud details: Overcast 2438 m
2019/10/13 22:55 KORS 132255Z AUTO VRB03KT 10SM OVC080 12/07 A2997 RMK AO2
 
CWSP - Sheringham Autob, British Columbia, Canada
Distance from station: WSW 43km
Updated: 13/10/2019 16:00

 Wind from W
Wind: W 2 km/h
Temperature: 12°C
2019/10/13 23:00 CWSP 132300Z AUTO 26001KT 12/ RMK AO1 SLP152 T0123 53001